Flight Track Log - Related Links

Times and Time Zones

All times are in EDT time to prevent confusion due to time zone crossing. See the SWA941 flight status page for this flight to view local times or setup timezone preferences in your user account.

Time Position Orientation Groundspeed Altitude Reporting Facility
EDT Latitude Longitude Course Direction KTS MPH feet Rate Location/Type
Fri 10:01:32 AM 29.5816 -98.4914 155° Southeast  Level FlightAware Approximate
Fri 10:02:32 AM 29.6629 -98.4500 183° South  Level FlightAware Approximate
Fri 10:03:32 AM 29.7577 -98.4311 186° South  Level FlightAware Approximate
Fri 10:04:32 AM 29.8457 -98.4770 177° South  Level FlightAware Approximate
Fri 10:05:32 AM 29.9361 -98.4128 185° South  Level FlightAware Approximate
Fri 10:06:32 AM 30.0332 -98.4671 179° South  Level FlightAware Approximate
Fri 10:07:32 AM 30.1031 -98.3833 186° South  Level FlightAware Approximate
Fri 10:08:32 AM 30.1953 -98.4457 181° South  Level FlightAware Approximate
Fri 10:09:32 AM 30.2911 -98.5033 177° South  Level FlightAware Approximate
Fri 10:10:20 AM 29.5189 -98.4578 13° North 148 170 1,900  Level Houston Center
Fri 10:15:34 AM 29.8167 -98.3794 358° North 348 400 16,200 2,727 Climbing Houston Center
Fri 10:16:34 AM 29.9333 -98.3844 357° North 369 425 18,900 2,600 Climbing Houston Center
Fri 10:17:34 AM 30.0331 -98.3911 347° North 389 448 21,400 2,050 Climbing Houston Center
Fri 10:18:34 AM 30.1503 -98.4228 333° Northwest 398 458 23,000 1,800 Climbing Houston Center
Fri 10:19:34 AM 30.2478 -98.4797 332° Northwest 391 450 25,000 1,000 Climbing Houston Center
Fri 10:20:34 AM 30.3467 -98.5417 333° Northwest 396 456 25,000  Level Houston Center
Fri 10:21:34 AM 30.4458 -98.6014 333° Northwest 402 463 25,000 400 Level Houston Center
Fri 10:22:34 AM 30.5469 -98.6611 331° Northwest 402 463 25,800 1,400 Climbing Houston Center
Fri 10:23:34 AM 30.6458 -98.7236 333° Northwest 402 463 27,800 1,900 Climbing Houston Center
Fri 10:24:34 AM 30.7469 -98.7836 332° Northwest 409 471 29,600 2,000 Climbing Houston Center
Fri 10:25:34 AM 30.8500 -98.8467 332° Northwest 409 471 31,800 1,800 Climbing Houston Center
Fri 10:26:34 AM 30.9508 -98.9094 333° Northwest 409 471 33,200 1,400 Climbing Houston Center
Fri 10:27:34 AM 31.0417 -98.9644 333° Northwest 409 471 34,600 1,236 Climbing Houston Center
Fri 10:29:53 AM 31.2750 -99.1050 331° Northwest 387 445 37,300 995 Climbing Fort Worth Center
Fri 10:30:53 AM 31.3764 -99.1700 333° Northwest 394 453 37,900 350 Climbing Fort Worth Center
Fri 10:31:53 AM 31.4861 -99.2356 332° Northwest 395 455 38,000 50 Climbing Fort Worth Center
Fri 10:32:53 AM 31.5917 -99.3011 331° Northwest 408 470 38,000  Level Fort Worth Center
Fri 10:33:53 AM 31.6928 -99.3667 333° Northwest 413 475 38,000  Level Fort Worth Center
Fri 10:34:53 AM 31.7983 -99.4300 331° Northwest 413 475 38,000  Level Fort Worth Center
Fri 10:35:53 AM 31.9017 -99.4983 332° Northwest 418 481 38,000  Level Fort Worth Center
Fri 10:36:53 AM 32.0028 -99.5619 332° Northwest 418 481 38,000  Level Fort Worth Center
Fri 10:37:53 AM 32.1039 -99.6256 332° Northwest 411 473 38,000  Level Fort Worth Center
Fri 10:38:53 AM 32.2092 -99.6919 332° Northwest 416 479 38,000  Level Fort Worth Center
Fri 10:39:54 AM 32.3106 -99.7558 331° Northwest 416 479 38,000  Level Fort Worth Center
Fri 10:40:53 AM 32.4136 -99.8225 332° Northwest 416 479 38,000  Level Fort Worth Center
Fri 10:41:53 AM 32.5144 -99.8869 330° Northwest 416 479 38,000  Level Fort Worth Center
Fri 10:42:53 AM 32.6133 -99.9561 335° Northwest 416 479 38,000  Level Fort Worth Center
Fri 10:43:53 AM 32.7083 -100.0083 329° Northwest 416 479 38,000  Level Fort Worth Center
Fri 10:44:53 AM 32.8072 -100.0778 333° Northwest 416 479 38,000  Level Fort Worth Center
Fri 10:45:53 AM 32.9081 -100.1403 332° Northwest 409 471 38,000  Level Fort Worth Center
Fri 10:46:53 AM 33.0047 -100.2028 331° Northwest 404 465 38,000  Level Fort Worth Center
Fri 10:47:53 AM 33.0994 -100.2650 332° Northwest 399 459 38,000  Level Fort Worth Center
Fri 10:48:53 AM 33.1981 -100.3278 330° Northwest 399 459 38,000  Level Fort Worth Center
Fri 10:49:53 AM 33.2925 -100.3931 332° Northwest 393 452 38,000  Level Fort Worth Center
Fri 10:50:53 AM 33.3975 -100.4589 331° Northwest 387 445 38,000  Level Fort Worth Center
Fri 10:51:53 AM 33.4961 -100.5244 331° Northwest 387 445 38,000  Level Fort Worth Center
Fri 10:52:53 AM 33.5925 -100.5878 330° Northwest 387 445 38,000  Level Fort Worth Center
Fri 10:53:53 AM 33.6847 -100.6511 332° Northwest 387 445 38,000  Level Fort Worth Center
Fri 10:54:53 AM 33.7731 -100.7069 330° Northwest 387 445 38,000  Level Fort Worth Center
Fri 10:55:53 AM 33.8817 -100.7811 333° Northwest 387 445 38,000  Level Fort Worth Center
Fri 10:56:53 AM 33.9761 -100.8397 330° Northwest 387 445 38,000  Level Fort Worth Center
Fri 10:59:18 AM 34.2053 -100.9981 332° Northwest 393 452 38,000  Level Albuquerque Center
Fri 11:00:18 AM 34.3025 -101.0608 336° Northwest 393 452 38,000  Level Albuquerque Center
Fri 11:01:18 AM 34.4011 -101.1136 336° Northwest 393 452 38,000  Level Albuquerque Center
Fri 11:02:18 AM 34.5022 -101.1692 336° Northwest 393 452 38,000  Level Albuquerque Center
Fri 11:03:18 AM 34.6053 -101.2244 337° Northwest 393 452 38,000  Level Albuquerque Center
Fri 11:04:18 AM 34.7058 -101.2775 336° Northwest 393 452 38,000  Level Albuquerque Center
Fri 11:05:18 AM 34.8089 -101.3331 336° Northwest 393 452 38,000  Level Albuquerque Center
Fri 11:06:18 AM 34.9075 -101.3864 336° Northwest 398 458 38,000  Level Albuquerque Center
Fri 11:07:18 AM 35.0106 -101.4422 336° Northwest 398 458 38,000  Level Albuquerque Center
Fri 11:08:18 AM 35.1111 -101.4958 337° Northwest 398 458 38,000  Level Albuquerque Center
Fri 11:09:18 AM 35.2119 -101.5494 337° Northwest 398 458 38,000  Level Albuquerque Center
Fri 11:10:18 AM 35.2997 -101.5942 333° Northwest 398 458 38,000  Level Albuquerque Center
Fri 11:11:18 AM 35.4181 -101.6672 337° Northwest 398 458 38,000  Level Albuquerque Center
Fri 11:12:18 AM 35.5078 -101.7144 336° Northwest 398 458 38,000  Level Albuquerque Center
Fri 11:13:18 AM 35.6106 -101.7708 335° Northwest 398 458 38,000  Level Albuquerque Center
Fri 11:14:18 AM 35.7136 -101.8303 337° Northwest 398 458 38,000  Level Albuquerque Center
Fri 11:15:18 AM 35.8161 -101.8844 335° Northwest 398 458 38,000  Level Albuquerque Center
Fri 11:16:18 AM 35.9169 -101.9417 336° Northwest 398 458 38,000  Level Albuquerque Center
Fri 11:17:18 AM 36.0197 -101.9989 335° Northwest 398 458 38,000  Level Albuquerque Center
Fri 11:18:18 AM 36.1203 -102.0564 337° Northwest 398 458 38,000  Level Albuquerque Center
Fri 11:19:18 AM 36.2228 -102.1114 335° Northwest 398 458 38,000  Level Albuquerque Center
Fri 11:20:18 AM 36.3233 -102.1689 336° Northwest 398 458 38,000  Level Albuquerque Center
Fri 11:21:18 AM 36.4367 -102.2311 335° Northwest 398 458 38,000  Level Albuquerque Center
Fri 11:22:18 AM 36.5372 -102.2892 335° Northwest 398 458 38,000  Level Albuquerque Center
Fri 11:23:18 AM 36.6400 -102.3497 336° Northwest 398 458 38,000  Level Albuquerque Center
Fri 11:24:18 AM 36.7294 -102.3986 336° Northwest 398 458 38,000  Level Albuquerque Center
Fri 11:25:18 AM 36.8322 -102.4569 335° Northwest 398 458 38,000  Level Albuquerque Center
Fri 11:26:18 AM 36.9453 -102.5225 336° Northwest 398 458 38,000  Level Albuquerque Center
Fri 11:28:15 AM 37.1483 -102.6358 334° Northwest 398 458 38,000  Level Denver Center
Fri 11:29:15 AM 37.2506 -102.6981 335° Northwest 398 458 38,000  Level Denver Center
Fri 11:30:15 AM 37.3419 -102.7508 336° Northwest 398 458 38,000  Level Denver Center
Fri 11:31:15 AM 37.4567 -102.8156 335° Northwest 403 464 38,000 -467 Level Denver Center
Fri 11:33:15 AM 37.6542 -102.9314 334° Northwest 410 472 36,600 -667 Descending Denver Center
Fri 11:34:15 AM 37.7539 -102.9922 335° Northwest 410 472 36,000 -300 Descending Denver Center
Fri 11:35:15 AM 37.8664 -103.0578 333° Northwest 410 472 36,000  Level Denver Center
Fri 11:36:14 AM 37.9686 -103.1239 330° Northwest 410 472 36,000  Level Denver Center
Fri 11:37:15 AM 38.0558 -103.1883 329° Northwest 410 472 36,000  Level Denver Center
Fri 11:38:15 AM 38.1625 -103.2706 329° Northwest 404 465 36,000 -450 Level Denver Center
Fri 11:39:15 AM 38.2583 -103.3431 329° Northwest 404 465 35,100 -950 Descending Denver Center
Fri 11:40:15 AM 38.3542 -103.4156 328° Northwest 404 465 34,100 -550 Descending Denver Center
Fri 11:41:15 AM 38.4414 -103.4858 329° Northwest 416 479 34,000 -50 Descending Denver Center
Fri 11:42:15 AM 38.5478 -103.5692 329° Northwest 416 479 34,000 -1,150 Level Denver Center
Fri 11:43:15 AM 38.6478 -103.6447 328° Northwest 416 479 31,700 -2,800 Descending Denver Center
Fri 11:44:15 AM 38.7497 -103.7258 328° Northwest 421 484 28,400 -2,800 Descending Denver Center
Fri 11:45:15 AM 38.8389 -103.7969 331° Northwest 421 484 26,100 -2,400 Descending Denver Center
Fri 11:46:15 AM 38.9472 -103.8756 330° Northwest 415 478 23,600 -2,420 Descending Denver Center
Fri 11:47:14 AM 39.0425 -103.9469 327° Northwest 415 478 21,300 -2,200 Descending Denver Center
Fri 11:48:15 AM 39.1317 -104.0214 328° Northwest 399 459 19,200 -2,033 Descending Denver Center
Fri 11:49:15 AM 39.2208 -104.0931 323° Northwest 383 441 17,200 -1,350 Descending Denver Center
Fri 11:50:15 AM 39.2953 -104.1658 319° Northwest 354 407 16,500 -1,050 Descending Denver Center
Fri 11:51:15 AM 39.3614 -104.2414 318° Northwest 319 367 15,100 -1,550 Descending Denver Center
Fri 11:52:15 AM 39.4275 -104.3172 319° Northwest 309 356 13,400 -1,059 Descending Denver Center
Fri 11:53:14 AM 39.4831 -104.3800 330° Northwest 304 350 13,000 -200 Descending Denver Center
Fri 11:54:15 AM 39.5589 -104.4372 337° Northwest 304 350 13,000  Level Denver Center
Fri 11:55:15 AM 39.6411 -104.4833 349° North 304 350 13,000 -450 Level Denver Center
Fri 11:56:15 AM 39.7250 -104.5050 350° North 304 350 12,100 -1,000 Descending Denver Center
Fri 11:57:15 AM 39.8108 -104.5242 North 309 356 11,000 -550 Descending Denver Center
Fri 11:58:15 AM 39.8878 -104.5219 North 296 341 11,000 -200 Level Denver Center
Fri 11:59:15 AM 39.9608 -104.5172 353° North 267 307 10,600 -898 Descending Denver Center
Fri 12:00:42 PM 40.0667 -104.5333 285° West 271 312 8,800 -1,184 Descending Denver TRACON
Fri 12:01:42 PM 40.0833 -104.6167 229° Southwest 235 270 7,700 -900 Descending Denver TRACON
Fri 12:02:42 PM 40.0500 -104.6667 194° South 230 265 7,000 -350 Descending Denver TRACON
Fri 12:03:42 PM 40.0000 -104.6833 180° South 195 224 7,000 -350 Level Denver TRACON
Fri 12:04:42 PM 39.9500 -104.6833 180° South 163 188 6,300 -700 Descending Denver TRACON

Login

Don't have an account? Register now (free) for customized features, flight alerts, and more!